createdAt,value
2022-12-29T00:00:03.375Z,7.60
2022-12-29T00:01:03.404Z,7.60
2022-12-29T00:02:03.264Z,7.60
2022-12-29T00:03:03.338Z,7.60
2022-12-29T00:04:03.119Z,7.70
2022-12-29T00:05:03.090Z,7.70
2022-12-29T00:06:03.136Z,7.70
2022-12-29T00:07:03.031Z,7.70
2022-12-29T00:08:02.952Z,7.60
2022-12-29T00:09:02.950Z,7.70
2022-12-29T00:10:02.895Z,7.70
2022-12-29T00:11:02.708Z,7.60
2022-12-29T00:12:02.743Z,7.70
2022-12-29T00:13:02.684Z,7.70
2022-12-29T00:14:02.624Z,7.60
2022-12-29T00:15:02.641Z,7.70
2022-12-29T00:16:02.720Z,7.70
2022-12-29T00:17:03.586Z,7.70
2022-12-29T00:18:03.531Z,7.70
2022-12-29T00:19:03.506Z,7.70
2022-12-29T00:20:03.499Z,7.70
2022-12-29T00:21:03.424Z,7.70
2022-12-29T00:22:03.329Z,7.70
2022-12-29T00:23:03.359Z,7.70
2022-12-29T00:24:03.215Z,7.70
2022-12-29T00:25:03.217Z,7.70
2022-12-29T00:26:03.225Z,7.70
2022-12-29T00:27:03.176Z,7.70
2022-12-29T00:28:06.514Z,7.70
2022-12-29T00:29:03.030Z,7.70
2022-12-29T00:30:03.015Z,7.60
2022-12-29T00:31:03.002Z,7.60
2022-12-29T00:32:02.927Z,7.60
2022-12-29T00:33:02.920Z,7.60
2022-12-29T00:34:02.851Z,7.60
2022-12-29T00:35:02.717Z,7.60
2022-12-29T00:36:02.752Z,7.60
2022-12-29T00:37:02.685Z,7.60
2022-12-29T00:38:03.591Z,7.60
2022-12-29T00:39:03.489Z,7.60
2022-12-29T00:40:03.411Z,7.60
2022-12-29T00:41:03.369Z,7.60
2022-12-29T00:42:03.209Z,7.60
2022-12-29T00:43:03.159Z,7.60
2022-12-29T00:44:03.108Z,7.60
2022-12-29T00:45:03.039Z,7.60
2022-12-29T00:46:03.004Z,7.60
2022-12-29T00:47:02.949Z,7.60
2022-12-29T00:48:02.812Z,7.60
2022-12-29T00:49:02.877Z,7.60
2022-12-29T00:50:02.779Z,7.60
2022-12-29T00:51:02.841Z,7.60
2022-12-29T00:52:02.710Z,7.60
2022-12-29T00:53:02.808Z,7.60
2022-12-29T00:54:02.777Z,7.60
2022-12-29T00:55:02.712Z,7.60
2022-12-29T00:56:02.695Z,7.60
2022-12-29T00:57:03.594Z,7.60
2022-12-29T00:58:03.491Z,7.60
2022-12-29T00:59:03.457Z,7.60
2022-12-29T01:00:03.465Z,7.60
2022-12-29T01:01:03.500Z,7.60
2022-12-29T01:02:03.189Z,7.60
2022-12-29T01:03:03.206Z,7.60
2022-12-29T01:04:04.374Z,7.60
2022-12-29T01:05:02.993Z,7.60
2022-12-29T01:06:02.992Z,7.60
2022-12-29T01:07:02.908Z,7.60
2022-12-29T01:08:02.879Z,7.60
2022-12-29T01:09:02.792Z,7.60
2022-12-29T01:10:02.972Z,7.60
2022-12-29T01:11:02.644Z,7.60
2022-12-29T01:12:02.771Z,7.70
2022-12-29T01:13:02.678Z,7.70
2022-12-29T01:14:02.637Z,7.70
2022-12-29T01:15:02.862Z,7.70
2022-12-29T01:16:02.769Z,7.70
2022-12-29T01:17:02.975Z,7.70
2022-12-29T01:18:02.902Z,7.70
2022-12-29T01:19:02.888Z,7.70
2022-12-29T01:20:02.909Z,7.70
2022-12-29T01:21:02.806Z,7.70
2022-12-29T01:22:02.762Z,7.70
2022-12-29T01:23:02.670Z,7.70
2022-12-29T01:24:03.566Z,7.80
2022-12-29T01:25:03.453Z,7.70
2022-12-29T01:26:03.553Z,7.70
2022-12-29T01:27:03.549Z,7.80
2022-12-29T01:28:03.503Z,7.80
2022-12-29T01:29:03.570Z,7.80
2022-12-29T01:30:03.485Z,7.80
2022-12-29T01:31:03.485Z,7.80
2022-12-29T01:32:03.453Z,7.70
2022-12-29T01:33:03.384Z,7.70
2022-12-29T01:34:03.506Z,7.80
2022-12-29T01:35:03.359Z,7.80
2022-12-29T01:36:03.434Z,7.80
2022-12-29T01:37:03.352Z,7.80
2022-12-29T01:38:03.357Z,7.80
2022-12-29T01:39:03.372Z,7.80
2022-12-29T01:40:03.446Z,7.80
2022-12-29T01:41:03.423Z,7.80
2022-12-29T01:42:03.263Z,7.80
2022-12-29T01:43:03.299Z,7.80
2022-12-29T01:44:03.182Z,7.80
2022-12-29T01:45:03.216Z,7.80
2022-12-29T01:46:03.304Z,7.80
2022-12-29T01:47:03.050Z,7.80
2022-12-29T01:48:03.087Z,7.80
2022-12-29T01:49:03.115Z,7.80
2022-12-29T01:50:03.159Z,7.80
2022-12-29T01:51:03.063Z,7.80
2022-12-29T01:52:03.129Z,7.80
2022-12-29T01:53:03.012Z,7.80
2022-12-29T01:54:02.901Z,7.80
2022-12-29T01:55:02.843Z,7.80
2022-12-29T01:56:02.810Z,7.80
2022-12-29T01:57:02.742Z,7.80
2022-12-29T01:58:02.621Z,7.80
2022-12-29T01:59:03.480Z,7.80
2022-12-29T02:00:03.417Z,7.80
2022-12-29T02:01:03.467Z,7.80
2022-12-29T02:02:03.370Z,7.80
2022-12-29T02:03:03.213Z,7.80
2022-12-29T02:04:03.117Z,7.80
2022-12-29T02:05:04.758Z,7.80
2022-12-29T02:06:02.964Z,7.80
2022-12-29T02:07:02.968Z,7.80
2022-12-29T02:08:02.929Z,7.80
2022-12-29T02:09:02.817Z,7.80
2022-12-29T02:10:02.788Z,7.80
2022-12-29T02:11:02.675Z,7.80
2022-12-29T02:12:02.675Z,7.80
2022-12-29T02:13:03.538Z,7.80
2022-12-29T02:14:03.832Z,7.90
2022-12-29T02:15:03.452Z,7.90
2022-12-29T02:16:03.437Z,7.90
2022-12-29T02:17:03.470Z,7.90
2022-12-29T02:18:03.454Z,7.90
2022-12-29T02:19:03.332Z,8.00
2022-12-29T02:20:03.297Z,8.00
2022-12-29T02:21:03.206Z,8.00
2022-12-29T02:22:03.201Z,8.00
2022-12-29T02:23:03.171Z,8.00
2022-12-29T02:24:03.193Z,8.00
2022-12-29T02:25:02.881Z,8.00
2022-12-29T02:26:02.760Z,8.00
2022-12-29T02:27:02.837Z,8.00
2022-12-29T02:28:02.840Z,8.00
2022-12-29T02:29:02.834Z,8.00
2022-12-29T02:30:02.836Z,8.00
2022-12-29T02:31:02.749Z,8.00
2022-12-29T02:32:02.707Z,8.00
2022-12-29T02:33:02.734Z,8.00
2022-12-29T02:34:02.746Z,8.00
2022-12-29T02:35:02.743Z,8.00
2022-12-29T02:36:02.724Z,8.00
2022-12-29T02:37:02.790Z,8.00
2022-12-29T02:38:02.721Z,8.10
2022-12-29T02:39:03.601Z,8.00
2022-12-29T02:40:03.499Z,8.00
2022-12-29T02:41:03.427Z,8.00
2022-12-29T02:42:03.392Z,8.00
2022-12-29T02:43:03.312Z,8.10
2022-12-29T02:44:03.221Z,8.10
2022-12-29T02:45:03.111Z,8.10
2022-12-29T02:46:03.072Z,8.10
2022-12-29T02:47:02.962Z,8.10
2022-12-29T02:48:02.918Z,8.10
2022-12-29T02:49:02.871Z,8.10
2022-12-29T02:50:02.921Z,8.10
2022-12-29T02:51:02.858Z,8.00
2022-12-29T02:52:02.744Z,8.00
2022-12-29T02:53:02.619Z,8.00
2022-12-29T02:54:03.557Z,8.00
2022-12-29T02:55:03.561Z,8.00
2022-12-29T02:56:03.464Z,8.00
2022-12-29T02:57:03.385Z,8.00
2022-12-29T02:58:03.348Z,8.00
2022-12-29T02:59:03.217Z,8.00
2022-12-29T03:00:03.200Z,8.00
2022-12-29T03:01:03.286Z,8.00
2022-12-29T03:02:03.357Z,8.00
2022-12-29T03:03:03.297Z,8.00
2022-12-29T03:04:03.135Z,8.00
2022-12-29T03:05:03.047Z,8.10
2022-12-29T03:06:03.059Z,8.00
2022-12-29T03:07:02.977Z,8.10
2022-12-29T03:08:03.266Z,8.10
2022-12-29T03:09:03.275Z,8.10
2022-12-29T03:10:03.181Z,8.10
2022-12-29T03:11:03.146Z,8.10
2022-12-29T03:12:03.017Z,8.10
2022-12-29T03:13:03.074Z,8.10
2022-12-29T03:14:02.980Z,8.10
2022-12-29T03:15:03.306Z,8.10
2022-12-29T03:16:03.236Z,8.10
2022-12-29T03:17:03.396Z,8.10
2022-12-29T03:18:03.439Z,8.10
2022-12-29T03:19:03.422Z,8.10
2022-12-29T03:20:03.360Z,8.10
2022-12-29T03:21:03.367Z,8.10
2022-12-29T03:22:03.347Z,8.10
2022-12-29T03:23:03.221Z,8.10
2022-12-29T03:24:03.242Z,8.20
2022-12-29T03:25:03.152Z,8.20
2022-12-29T03:26:03.064Z,8.20
2022-12-29T03:27:03.045Z,8.20
2022-12-29T03:28:02.963Z,8.20
2022-12-29T03:29:02.889Z,8.20
2022-12-29T03:30:02.832Z,8.20
2022-12-29T03:31:02.733Z,8.20
2022-12-29T03:32:02.584Z,8.20
2022-12-29T03:33:03.621Z,8.20
2022-12-29T03:34:03.517Z,8.20
2022-12-29T03:35:03.424Z,8.20
2022-12-29T03:36:03.405Z,8.20
2022-12-29T03:37:03.432Z,8.20
2022-12-29T03:38:03.397Z,8.20
2022-12-29T03:39:03.269Z,8.30
2022-12-29T03:40:03.268Z,8.30
2022-12-29T03:41:03.101Z,8.30
2022-12-29T03:42:03.010Z,8.30
2022-12-29T03:43:02.942Z,8.30
2022-12-29T03:44:02.895Z,8.30
2022-12-29T03:45:02.955Z,8.30
2022-12-29T03:46:02.954Z,8.30
2022-12-29T03:47:02.870Z,8.30
2022-12-29T03:48:02.770Z,8.40
2022-12-29T03:49:02.771Z,8.40
2022-12-29T03:50:02.718Z,8.40
2022-12-29T03:51:02.607Z,8.40
2022-12-29T03:52:02.667Z,8.40
2022-12-29T03:53:02.666Z,8.40
2022-12-29T03:54:02.647Z,8.40
2022-12-29T03:55:03.549Z,8.40
2022-12-29T03:56:03.478Z,8.40
2022-12-29T03:57:03.442Z,8.50
2022-12-29T03:58:03.321Z,8.50
2022-12-29T03:59:03.266Z,8.50
2022-12-29T04:00:03.201Z,8.50
2022-12-29T04:01:03.133Z,8.50
2022-12-29T04:02:03.198Z,8.50
2022-12-29T04:03:03.073Z,8.50
2022-12-29T04:04:02.955Z,8.50
2022-12-29T04:05:02.865Z,8.50
2022-12-29T04:06:02.905Z,8.50
2022-12-29T04:07:02.881Z,8.50
2022-12-29T04:08:02.800Z,8.50
2022-12-29T04:09:02.876Z,8.50
2022-12-29T04:10:02.769Z,8.50
2022-12-29T04:11:02.644Z,8.50
2022-12-29T04:12:02.594Z,8.50
2022-12-29T04:13:02.588Z,8.50
2022-12-29T04:14:03.826Z,8.50
2022-12-29T04:15:03.541Z,8.50
2022-12-29T04:16:03.560Z,8.50
2022-12-29T04:17:03.417Z,8.50
2022-12-29T04:18:03.443Z,8.50
2022-12-29T04:19:03.351Z,8.60
2022-12-29T04:20:03.462Z,8.60
2022-12-29T04:21:03.575Z,8.60
2022-12-29T04:22:02.652Z,8.60
2022-12-29T04:23:03.613Z,8.60
2022-12-29T04:24:03.587Z,8.60
2022-12-29T04:25:03.491Z,8.60
2022-12-29T04:26:03.446Z,8.60
2022-12-29T04:27:03.367Z,8.60
2022-12-29T04:28:03.564Z,8.70
2022-12-29T04:29:03.442Z,8.70
2022-12-29T04:30:03.388Z,8.70
2022-12-29T04:31:03.488Z,8.70
2022-12-29T04:32:03.547Z,8.80
2022-12-29T04:33:03.513Z,8.70
2022-12-29T04:34:03.396Z,8.80
2022-12-29T04:35:03.367Z,8.80
2022-12-29T04:36:03.277Z,8.80
2022-12-29T04:37:03.193Z,8.80
2022-12-29T04:38:03.149Z,8.80
2022-12-29T04:39:03.202Z,8.80
2022-12-29T04:40:03.089Z,8.80
2022-12-29T04:41:03.142Z,8.80
2022-12-29T04:42:03.039Z,8.90
2022-12-29T04:43:02.992Z,8.90
2022-12-29T04:44:02.992Z,8.90
2022-12-29T04:45:02.976Z,8.90
2022-12-29T04:46:03.163Z,8.90
2022-12-29T04:47:02.688Z,8.90
2022-12-29T04:48:02.587Z,8.90
2022-12-29T04:49:02.637Z,8.90
2022-12-29T04:50:02.669Z,8.90
2022-12-29T04:51:02.726Z,8.90
2022-12-29T04:52:02.695Z,8.90
2022-12-29T04:53:02.630Z,9.00
2022-12-29T04:54:02.581Z,9.00
2022-12-29T04:55:03.538Z,9.00
2022-12-29T04:56:02.640Z,9.00
2022-12-29T04:57:03.603Z,9.00
2022-12-29T04:58:03.446Z,9.00
2022-12-29T04:59:03.495Z,9.00
2022-12-29T05:00:03.407Z,9.00
2022-12-29T05:01:03.458Z,9.00
2022-12-29T05:02:03.571Z,9.00
2022-12-29T05:03:03.620Z,9.00
2022-12-29T05:04:03.024Z,9.00
2022-12-29T05:05:02.870Z,9.00
2022-12-29T05:06:02.814Z,9.00
2022-12-29T05:07:02.828Z,8.90
2022-12-29T05:08:02.786Z,8.90
2022-12-29T05:09:02.753Z,8.90
2022-12-29T05:10:02.582Z,8.90
2022-12-29T05:11:02.585Z,8.90
2022-12-29T05:12:03.512Z,8.90
2022-12-29T05:13:03.435Z,8.90
2022-12-29T05:14:03.528Z,8.90
2022-12-29T05:15:03.446Z,8.80
2022-12-29T05:16:03.402Z,8.80
2022-12-29T05:17:03.270Z,8.80
2022-12-29T05:18:03.141Z,8.80
2022-12-29T05:19:03.103Z,8.80
2022-12-29T05:20:02.985Z,8.80
2022-12-29T05:21:02.923Z,8.80
2022-12-29T05:22:02.843Z,8.80
2022-12-29T05:23:02.892Z,8.70
2022-12-29T05:24:02.982Z,8.80
2022-12-29T05:25:03.025Z,8.70
2022-12-29T05:26:03.322Z,8.70
2022-12-29T05:27:03.322Z,8.70
2022-12-29T05:28:03.259Z,8.70
2022-12-29T05:29:03.572Z,8.80
2022-12-29T05:30:03.612Z,8.80
2022-12-29T05:31:03.558Z,8.80
2022-12-29T05:32:03.494Z,8.80
2022-12-29T05:33:03.415Z,8.80
2022-12-29T05:34:03.380Z,8.80
2022-12-29T05:35:03.356Z,8.80
2022-12-29T05:36:03.221Z,8.80
2022-12-29T05:37:03.170Z,8.90
2022-12-29T05:38:03.095Z,8.90
2022-12-29T05:39:03.105Z,8.90
2022-12-29T05:40:03.132Z,8.90
2022-12-29T05:41:03.036Z,8.90
2022-12-29T05:42:03.098Z,8.90
2022-12-29T05:43:03.026Z,8.90
2022-12-29T05:44:03.165Z,8.90
2022-12-29T05:45:03.053Z,9.00
2022-12-29T05:46:02.943Z,9.00
2022-12-29T05:47:02.911Z,9.00
2022-12-29T05:48:02.879Z,9.00
2022-12-29T05:49:02.724Z,9.00
2022-12-29T05:50:02.613Z,9.10
2022-12-29T05:51:02.653Z,9.10
2022-12-29T05:52:02.757Z,9.10
2022-12-29T05:53:03.146Z,9.10
2022-12-29T05:54:03.115Z,9.10
2022-12-29T05:55:03.025Z,9.10
2022-12-29T05:56:02.979Z,9.10
2022-12-29T05:57:02.965Z,9.10
2022-12-29T05:58:02.712Z,9.10
2022-12-29T05:59:03.654Z,9.10
2022-12-29T06:00:02.720Z,9.20
2022-12-29T06:01:02.634Z,9.20
2022-12-29T06:02:03.772Z,9.20
2022-12-29T06:03:03.696Z,9.20
2022-12-29T06:04:03.589Z,9.20
2022-12-29T06:05:03.511Z,9.20
2022-12-29T06:06:03.598Z,9.20
2022-12-29T06:07:03.592Z,9.20
2022-12-29T06:08:03.451Z,9.20
2022-12-29T06:09:03.414Z,9.20
2022-12-29T06:10:03.474Z,9.20
2022-12-29T06:11:03.414Z,9.20
2022-12-29T06:12:03.401Z,9.20
2022-12-29T06:13:03.381Z,9.20
2022-12-29T06:14:03.376Z,9.20
2022-12-29T06:15:03.277Z,9.30
2022-12-29T06:16:03.314Z,9.20
2022-12-29T06:17:03.255Z,9.20
2022-12-29T06:18:03.110Z,9.20
2022-12-29T06:19:03.174Z,9.30
2022-12-29T06:20:03.181Z,9.20
2022-12-29T06:21:03.084Z,9.30
2022-12-29T06:22:03.114Z,9.30
2022-12-29T06:23:03.057Z,9.30
2022-12-29T06:24:02.969Z,9.30
2022-12-29T06:25:05.078Z,9.30
2022-12-29T06:26:02.973Z,9.30
2022-12-29T06:27:02.820Z,9.30
2022-12-29T06:28:02.894Z,9.30
2022-12-29T06:29:02.831Z,9.30
2022-12-29T06:30:02.906Z,9.30
2022-12-29T06:31:02.804Z,9.30
2022-12-29T06:32:02.716Z,9.30
2022-12-29T06:33:02.706Z,9.30
2022-12-29T06:34:08.056Z,9.30
2022-12-29T06:35:03.564Z,9.30
2022-12-29T06:36:03.570Z,9.30
2022-12-29T06:37:03.404Z,9.30
2022-12-29T06:38:03.371Z,9.30
2022-12-29T06:39:03.346Z,9.30
2022-12-29T06:40:03.390Z,9.30
2022-12-29T06:41:03.303Z,9.30
2022-12-29T06:42:03.303Z,9.30
2022-12-29T06:43:03.278Z,9.30
2022-12-29T06:44:03.298Z,9.30
2022-12-29T06:45:03.201Z,9.40
2022-12-29T06:46:03.231Z,9.40
2022-12-29T06:47:03.243Z,9.40
2022-12-29T06:48:03.248Z,9.40
2022-12-29T06:49:03.142Z,9.40
2022-12-29T06:50:03.150Z,9.40
2022-12-29T06:51:03.031Z,9.40
2022-12-29T06:52:05.083Z,9.40
2022-12-29T06:53:02.887Z,9.40
2022-12-29T06:54:02.890Z,9.50
2022-12-29T06:55:02.920Z,9.50
2022-12-29T06:56:02.905Z,9.50
2022-12-29T06:57:02.811Z,9.50
2022-12-29T06:58:02.814Z,9.50
2022-12-29T06:59:02.788Z,9.50
2022-12-29T07:00:02.897Z,9.50
2022-12-29T07:01:02.958Z,9.50
2022-12-29T07:02:02.990Z,9.50
2022-12-29T07:03:02.919Z,9.50
2022-12-29T07:04:02.780Z,9.50
2022-12-29T07:05:02.789Z,9.50
2022-12-29T07:06:02.651Z,9.60
2022-12-29T07:07:03.574Z,9.60
2022-12-29T07:08:03.549Z,9.60
2022-12-29T07:09:03.427Z,9.60
2022-12-29T07:10:03.340Z,9.60
2022-12-29T07:11:03.303Z,9.60
2022-12-29T07:12:03.289Z,9.60
2022-12-29T07:13:03.321Z,9.60
2022-12-29T07:14:03.256Z,9.70
2022-12-29T07:15:03.239Z,9.70
2022-12-29T07:16:03.230Z,9.70
2022-12-29T07:17:03.175Z,9.70
2022-12-29T07:18:03.153Z,9.70
2022-12-29T07:19:03.142Z,9.70
2022-12-29T07:20:03.121Z,9.70
2022-12-29T07:21:03.116Z,9.70
2022-12-29T07:22:03.114Z,9.70
2022-12-29T07:23:03.059Z,9.70
2022-12-29T07:24:03.026Z,9.70
2022-12-29T07:25:02.952Z,9.70
2022-12-29T07:26:02.938Z,9.70
2022-12-29T07:27:02.907Z,9.80
2022-12-29T07:28:02.815Z,9.70
2022-12-29T07:29:02.898Z,9.80
2022-12-29T07:30:02.824Z,9.80
2022-12-29T07:31:02.714Z,9.80
2022-12-29T07:32:02.751Z,9.80
2022-12-29T07:33:02.593Z,9.80
2022-12-29T07:34:02.661Z,9.80
2022-12-29T07:35:03.564Z,9.80
2022-12-29T07:36:03.559Z,9.80
2022-12-29T07:37:03.443Z,9.80
2022-12-29T07:38:03.420Z,9.80
2022-12-29T07:39:03.380Z,9.80
2022-12-29T07:40:03.301Z,9.80
2022-12-29T07:41:03.209Z,9.80
2022-12-29T07:42:05.245Z,9.80
2022-12-29T07:43:03.225Z,9.80
2022-12-29T07:44:03.235Z,9.80
2022-12-29T07:45:03.118Z,9.80
2022-12-29T07:46:03.481Z,9.80
2022-12-29T07:47:03.552Z,9.80
2022-12-29T07:48:03.530Z,9.80
2022-12-29T07:49:03.371Z,9.80
2022-12-29T07:50:03.317Z,9.80
2022-12-29T07:51:03.408Z,9.80
2022-12-29T07:52:03.283Z,9.70
2022-12-29T07:53:03.289Z,9.70
2022-12-29T07:54:03.257Z,9.70
2022-12-29T07:55:03.176Z,9.70
2022-12-29T07:56:03.210Z,9.80
2022-12-29T07:57:03.182Z,9.70
2022-12-29T07:58:03.221Z,9.70
2022-12-29T07:59:03.167Z,9.70
2022-12-29T08:00:03.105Z,9.70
2022-12-29T08:01:03.167Z,9.70
2022-12-29T08:02:03.167Z,9.70
2022-12-29T08:03:02.845Z,9.70
2022-12-29T08:04:02.854Z,9.70
2022-12-29T08:05:02.770Z,9.70
2022-12-29T08:06:02.652Z,9.70
2022-12-29T08:07:02.653Z,9.70
2022-12-29T08:08:03.542Z,9.70
2022-12-29T08:09:11.258Z,9.70
2022-12-29T08:10:03.412Z,9.70
2022-12-29T08:11:03.359Z,9.70
2022-12-29T08:12:03.218Z,9.70
2022-12-29T08:13:03.234Z,9.80
2022-12-29T08:14:03.308Z,9.70
2022-12-29T08:15:03.167Z,9.70
2022-12-29T08:16:03.183Z,9.70
2022-12-29T08:17:03.054Z,9.70
2022-12-29T08:18:03.020Z,9.70
2022-12-29T08:19:03.061Z,9.70
2022-12-29T08:20:02.883Z,9.80
2022-12-29T08:21:02.788Z,9.70
2022-12-29T08:22:02.807Z,9.70
2022-12-29T08:23:02.827Z,9.80
2022-12-29T08:24:02.819Z,9.80
2022-12-29T08:25:02.722Z,9.70
2022-12-29T08:26:03.548Z,9.70
2022-12-29T08:27:09.185Z,9.70
2022-12-29T08:28:03.505Z,9.70
2022-12-29T08:29:03.512Z,9.70
2022-12-29T08:30:03.470Z,9.70
2022-12-29T08:31:03.437Z,9.70
2022-12-29T08:32:03.344Z,9.70
2022-12-29T08:33:03.271Z,9.70
2022-12-29T08:34:03.238Z,9.70
2022-12-29T08:35:03.197Z,9.70
2022-12-29T08:36:03.112Z,9.70
2022-12-29T08:37:03.078Z,9.70
2022-12-29T08:38:03.073Z,9.70
2022-12-29T08:39:03.073Z,9.70
2022-12-29T08:40:02.997Z,9.70
2022-12-29T08:41:02.886Z,9.70
2022-12-29T08:42:02.875Z,9.70
2022-12-29T08:43:02.880Z,9.70
2022-12-29T08:44:02.827Z,9.70
2022-12-29T08:45:02.747Z,9.80
2022-12-29T08:46:02.638Z,9.70
2022-12-29T08:47:03.569Z,9.80
2022-12-29T08:48:03.380Z,9.80
2022-12-29T08:49:03.495Z,9.80
2022-12-29T08:50:03.370Z,9.80
2022-12-29T08:51:03.352Z,9.80
2022-12-29T08:52:03.515Z,9.80
2022-12-29T08:53:03.530Z,9.90
2022-12-29T08:54:03.504Z,9.90
2022-12-29T08:55:03.465Z,9.90
2022-12-29T08:56:05.338Z,9.90
2022-12-29T08:57:03.307Z,9.90
2022-12-29T08:58:03.174Z,9.90
2022-12-29T08:59:03.091Z,10.00
2022-12-29T09:00:02.698Z,10.00
2022-12-29T09:01:02.601Z,10.00
2022-12-29T09:02:02.868Z,10.00
2022-12-29T09:03:02.778Z,10.00
2022-12-29T09:04:14.675Z,10.00
2022-12-29T09:05:03.521Z,10.00
2022-12-29T09:06:03.502Z,10.00
2022-12-29T09:07:03.519Z,10.00
2022-12-29T09:08:03.528Z,10.00
2022-12-29T09:09:03.438Z,10.00
2022-12-29T09:10:03.343Z,10.10
2022-12-29T09:11:03.298Z,10.10
2022-12-29T09:12:03.411Z,10.10
2022-12-29T09:13:03.273Z,10.10
2022-12-29T09:14:03.346Z,10.10
2022-12-29T09:15:03.152Z,10.10
2022-12-29T09:16:03.264Z,10.10
2022-12-29T09:17:03.314Z,10.10
2022-12-29T09:18:03.168Z,10.20
2022-12-29T09:19:03.352Z,10.20
2022-12-29T09:20:03.144Z,10.20
2022-12-29T09:21:03.050Z,10.20
2022-12-29T09:22:02.895Z,10.20
2022-12-29T09:23:03.312Z,10.20
2022-12-29T09:24:02.929Z,10.20
2022-12-29T09:25:02.796Z,10.30
2022-12-29T09:26:02.745Z,10.30
2022-12-29T09:27:02.647Z,10.30
2022-12-29T09:28:02.607Z,10.30
2022-12-29T09:29:03.540Z,10.30
2022-12-29T09:30:03.523Z,10.30
2022-12-29T09:31:03.484Z,10.30
2022-12-29T09:32:06.863Z,10.30
2022-12-29T09:33:03.382Z,10.30
2022-12-29T09:34:03.362Z,10.30
2022-12-29T09:35:03.347Z,10.30
2022-12-29T09:36:03.356Z,10.30
2022-12-29T09:37:03.458Z,10.30
2022-12-29T09:38:03.372Z,10.30
2022-12-29T09:39:03.250Z,10.30
2022-12-29T09:40:03.247Z,10.30
2022-12-29T09:41:03.288Z,10.40
2022-12-29T09:42:03.272Z,10.40
2022-12-29T09:43:03.270Z,10.40
2022-12-29T09:44:08.249Z,10.40
2022-12-29T09:45:03.100Z,10.40
2022-12-29T09:46:08.134Z,10.40
2022-12-29T09:47:03.014Z,10.40
2022-12-29T09:48:06.766Z,10.40
2022-12-29T09:49:02.906Z,10.40
2022-12-29T09:50:04.719Z,10.50
2022-12-29T09:51:02.670Z,10.50
2022-12-29T09:52:03.585Z,10.50
2022-12-29T09:53:03.474Z,10.50
2022-12-29T09:54:03.486Z,10.50
2022-12-29T09:55:07.695Z,10.50
2022-12-29T09:56:03.350Z,10.50
2022-12-29T09:57:03.288Z,10.50
2022-12-29T09:58:03.323Z,10.60
2022-12-29T09:59:03.240Z,10.60
2022-12-29T10:00:03.246Z,10.60
2022-12-29T10:01:03.121Z,10.60
2022-12-29T10:02:03.278Z,10.60
2022-12-29T10:03:03.107Z,10.60
2022-12-29T10:04:02.932Z,10.60
2022-12-29T10:05:02.995Z,10.60
2022-12-29T10:06:03.073Z,10.60
2022-12-29T10:07:28.367Z,10.60
2022-12-29T10:08:02.923Z,10.60
2022-12-29T10:09:02.829Z,10.60
2022-12-29T10:10:02.866Z,10.70
2022-12-29T10:11:02.907Z,10.70
2022-12-29T10:12:03.148Z,10.70
2022-12-29T10:13:03.147Z,10.70
2022-12-29T10:14:03.102Z,10.70
2022-12-29T10:15:03.063Z,10.70
2022-12-29T10:16:03.347Z,10.70
2022-12-29T10:17:03.321Z,10.70
2022-12-29T10:18:03.166Z,10.70
2022-12-29T10:19:03.146Z,10.70
2022-12-29T10:20:03.195Z,10.70
2022-12-29T10:21:03.280Z,10.70
2022-12-29T10:22:03.335Z,10.70
2022-12-29T10:23:03.220Z,10.70
2022-12-29T10:24:03.254Z,10.70
2022-12-29T10:25:03.329Z,10.70
2022-12-29T10:26:03.274Z,10.70
2022-12-29T10:27:03.284Z,10.70
2022-12-29T10:28:03.179Z,10.70
2022-12-29T10:29:03.167Z,10.70
2022-12-29T10:30:03.120Z,10.70
2022-12-29T10:31:08.658Z,10.70
2022-12-29T10:32:08.220Z,10.70
2022-12-29T10:33:03.502Z,10.70
2022-12-29T10:34:03.093Z,10.70
2022-12-29T10:35:03.037Z,10.70
2022-12-29T10:36:03.144Z,10.70
2022-12-29T10:37:03.139Z,10.70
2022-12-29T10:38:03.183Z,10.70
2022-12-29T10:39:03.138Z,10.70
2022-12-29T10:40:03.468Z,10.60
2022-12-29T10:41:03.402Z,10.60
2022-12-29T10:42:03.548Z,10.60
2022-12-29T10:43:02.701Z,10.70
2022-12-29T10:44:03.647Z,10.60
2022-12-29T10:45:03.520Z,10.60
2022-12-29T10:46:03.526Z,10.60
2022-12-29T10:47:03.330Z,10.60
2022-12-29T10:48:03.203Z,10.60
2022-12-29T10:49:03.316Z,10.60
2022-12-29T10:50:03.151Z,10.60
2022-12-29T10:51:03.156Z,10.60
2022-12-29T10:52:03.143Z,10.60
2022-12-29T10:53:03.142Z,10.60
2022-12-29T10:54:03.451Z,10.60
2022-12-29T10:55:03.251Z,10.60
2022-12-29T10:56:03.338Z,10.60
2022-12-29T10:57:03.322Z,10.60
2022-12-29T10:58:03.394Z,10.60
2022-12-29T10:59:03.300Z,10.60
2022-12-29T11:00:03.481Z,10.60
2022-12-29T11:01:03.167Z,10.60
2022-12-29T11:02:03.336Z,10.60
2022-12-29T11:03:03.120Z,10.60
2022-12-29T11:04:02.993Z,10.60
2022-12-29T11:05:02.822Z,10.60
2022-12-29T11:06:02.753Z,10.60
2022-12-29T11:07:02.720Z,10.60
2022-12-29T11:08:02.607Z,10.70
2022-12-29T11:09:02.692Z,10.70
2022-12-29T11:10:03.579Z,10.70
2022-12-29T11:11:03.424Z,10.80
2022-12-29T11:12:03.408Z,10.80
2022-12-29T11:13:03.414Z,10.80
2022-12-29T11:14:03.278Z,10.90
2022-12-29T11:15:03.230Z,10.90
2022-12-29T11:16:03.188Z,11.00
2022-12-29T11:17:02.769Z,11.00
2022-12-29T11:18:02.636Z,11.00
2022-12-29T11:19:03.539Z,11.10
2022-12-29T11:20:03.524Z,11.10
2022-12-29T11:21:03.383Z,11.10
2022-12-29T11:22:03.356Z,11.10
2022-12-29T11:23:08.500Z,11.10
2022-12-29T11:24:03.215Z,11.20
2022-12-29T11:25:03.273Z,11.20
2022-12-29T11:26:03.099Z,11.20
2022-12-29T11:27:03.363Z,11.20
2022-12-29T11:28:03.267Z,11.20
2022-12-29T11:29:03.161Z,11.20
2022-12-29T11:30:03.198Z,11.20
2022-12-29T11:31:03.136Z,11.20
2022-12-29T11:32:03.163Z,11.20
2022-12-29T11:33:03.059Z,11.20
2022-12-29T11:34:03.029Z,11.20
2022-12-29T11:35:03.364Z,11.20
2022-12-29T11:36:03.272Z,11.20
2022-12-29T11:37:03.369Z,11.20
2022-12-29T11:38:03.284Z,11.20
2022-12-29T11:39:04.810Z,11.20
2022-12-29T11:40:03.130Z,11.20
2022-12-29T11:41:03.047Z,11.20
2022-12-29T11:42:03.120Z,11.20
2022-12-29T11:43:03.155Z,11.10
2022-12-29T11:44:03.034Z,11.10
2022-12-29T11:45:06.314Z,11.10
2022-12-29T11:46:02.842Z,11.10
2022-12-29T11:47:02.843Z,11.10
2022-12-29T11:48:02.842Z,11.10
2022-12-29T11:49:03.053Z,11.10
2022-12-29T11:50:03.557Z,11.10
2022-12-29T11:51:03.481Z,11.10
2022-12-29T11:52:03.406Z,11.10
2022-12-29T11:53:03.283Z,11.10
2022-12-29T11:54:03.204Z,11.10
2022-12-29T11:55:03.126Z,11.10
2022-12-29T11:56:03.125Z,11.10
2022-12-29T11:57:02.970Z,11.10
2022-12-29T11:58:02.853Z,11.10
2022-12-29T11:59:02.888Z,11.10
2022-12-29T12:00:02.883Z,11.10
2022-12-29T12:01:02.816Z,11.10
2022-12-29T12:02:02.954Z,11.10
2022-12-29T12:03:02.900Z,11.10
2022-12-29T12:04:02.751Z,11.10
2022-12-29T12:05:02.601Z,11.10
2022-12-29T12:06:03.544Z,11.10
2022-12-29T12:07:03.415Z,11.20
2022-12-29T12:08:03.341Z,11.20
2022-12-29T12:09:03.371Z,11.20
2022-12-29T12:10:06.880Z,11.20
2022-12-29T12:11:03.310Z,11.20
2022-12-29T12:12:03.162Z,11.20
2022-12-29T12:13:03.097Z,11.20
2022-12-29T12:14:02.986Z,11.20
2022-12-29T12:15:02.881Z,11.20
2022-12-29T12:16:02.895Z,11.20
2022-12-29T12:17:02.824Z,11.20
2022-12-29T12:18:03.190Z,11.20
2022-12-29T12:19:02.680Z,11.20
2022-12-29T12:20:02.649Z,11.20
2022-12-29T12:21:03.568Z,11.20
2022-12-29T12:22:03.538Z,11.20
2022-12-29T12:23:03.565Z,11.30
2022-12-29T12:24:03.468Z,11.20
2022-12-29T12:25:03.440Z,11.20
2022-12-29T12:26:03.306Z,11.20
2022-12-29T12:27:03.296Z,11.20
2022-12-29T12:28:03.204Z,11.20
2022-12-29T12:29:03.161Z,11.20
2022-12-29T12:30:03.116Z,11.20
2022-12-29T12:31:02.971Z,11.20
2022-12-29T12:32:02.831Z,11.30
2022-12-29T12:33:02.800Z,11.20
2022-12-29T12:34:02.569Z,11.20
2022-12-29T12:35:03.515Z,11.20
2022-12-29T12:36:03.605Z,11.30
2022-12-29T12:37:03.270Z,11.20
2022-12-29T12:38:03.218Z,11.20
2022-12-29T12:39:03.273Z,11.20
2022-12-29T12:40:03.161Z,11.20
2022-12-29T12:41:03.085Z,11.20
2022-12-29T12:42:03.029Z,11.20
2022-12-29T12:43:02.962Z,11.20
2022-12-29T12:44:02.932Z,11.20
2022-12-29T12:45:02.809Z,11.30
2022-12-29T12:46:02.873Z,11.20
2022-12-29T12:47:02.723Z,11.20
2022-12-29T12:48:02.796Z,11.20
2022-12-29T12:49:02.629Z,11.20
2022-12-29T12:50:03.523Z,11.20
2022-12-29T12:51:03.370Z,11.20
2022-12-29T12:52:05.383Z,11.20
2022-12-29T12:53:03.198Z,11.20
2022-12-29T12:54:03.115Z,11.20
2022-12-29T12:55:02.980Z,11.20
2022-12-29T12:56:03.012Z,11.20
2022-12-29T12:57:03.229Z,11.20
2022-12-29T12:58:03.113Z,11.20
2022-12-29T12:59:09.097Z,11.20
2022-12-29T13:00:03.011Z,11.20
2022-12-29T13:01:03.084Z,11.20
2022-12-29T13:02:02.963Z,11.20
2022-12-29T13:03:03.207Z,11.20
2022-12-29T13:04:03.089Z,11.20
2022-12-29T13:05:02.986Z,11.10
2022-12-29T13:06:02.850Z,11.10
2022-12-29T13:07:02.764Z,11.20
2022-12-29T13:08:02.622Z,11.10
2022-12-29T13:09:03.581Z,11.10
2022-12-29T13:10:03.449Z,11.10